createdAt,value
2023-04-23T00:00:51.024Z,31.77
2023-04-23T00:03:20.205Z,20.37
2023-04-23T00:05:50.972Z,24.83
2023-04-23T00:08:19.556Z,29.50
2023-04-23T00:10:47.686Z,17.97
2023-04-23T00:13:17.280Z,22.93
2023-04-23T00:15:45.300Z,20.13
2023-04-23T00:18:12.885Z,20.07
2023-04-23T00:20:40.323Z,18.57
2023-04-23T00:23:07.797Z,22.40
2023-04-23T00:25:35.315Z,15.70
2023-04-23T00:28:02.958Z,22.57
2023-04-23T00:30:31.690Z,26.17
2023-04-23T00:32:59.243Z,14.53
2023-04-23T00:35:26.667Z,20.37
2023-04-23T00:37:54.287Z,19.20
2023-04-23T00:40:21.954Z,20.30
2023-04-23T00:42:52.141Z,20.97
2023-04-23T00:45:19.750Z,9.13
2023-04-23T00:47:50.409Z,8.33
2023-04-23T00:50:17.993Z,8.60
2023-04-23T00:52:45.440Z,12.90
2023-04-23T00:55:12.936Z,21.87
2023-04-23T00:57:40.855Z,15.13
2023-04-23T01:00:09.785Z,14.73
2023-04-23T01:02:38.454Z,24.10
2023-04-23T01:05:10.566Z,19.17
2023-04-23T01:07:38.567Z,8.93
2023-04-23T01:10:07.252Z,13.70
2023-04-23T01:12:35.412Z,10.80
2023-04-23T01:15:03.629Z,8.70
2023-04-23T01:17:32.167Z,77.13
2023-04-23T01:19:59.639Z,20.60
2023-04-23T01:22:28.472Z,8.63
2023-04-23T01:24:56.288Z,10.10
2023-04-23T01:27:24.974Z,18.73
2023-04-23T01:29:52.960Z,13.40
2023-04-23T01:32:21.572Z,11.30
2023-04-23T01:34:49.746Z,8.77
2023-04-23T01:37:17.839Z,9.23
2023-04-23T01:39:46.605Z,23.30
2023-04-23T01:42:14.093Z,14.77
2023-04-23T01:44:42.421Z,13.90
2023-04-23T01:47:10.165Z,13.83
2023-04-23T01:49:37.788Z,9.67
2023-04-23T01:52:05.238Z,8.90
2023-04-23T01:54:32.672Z,8.37
2023-04-23T01:57:01.500Z,14.23
2023-04-23T01:59:28.967Z,13.87
2023-04-23T02:01:56.414Z,8.90
2023-04-23T02:04:23.975Z,13.33
2023-04-23T02:06:52.689Z,24.53
2023-04-23T02:09:20.218Z,25.00
2023-04-23T02:11:47.747Z,12.67
2023-04-23T02:14:17.478Z,11.37
2023-04-23T02:16:45.045Z,12.53
2023-04-23T02:19:14.088Z,13.37
2023-04-23T02:21:43.435Z,13.20
2023-04-23T02:24:10.960Z,13.03
2023-04-23T02:26:38.379Z,14.50
2023-04-23T02:29:05.804Z,12.20
2023-04-23T02:31:34.677Z,13.27
2023-04-23T02:34:02.172Z,14.60
2023-04-23T02:36:31.093Z,15.73
2023-04-23T02:38:58.490Z,15.90
2023-04-23T02:41:25.898Z,15.17
2023-04-23T02:43:53.342Z,14.30
2023-04-23T02:46:21.036Z,14.97
2023-04-23T02:48:49.792Z,14.57
2023-04-23T02:51:17.332Z,15.43
2023-04-23T02:53:44.798Z,14.73
2023-04-23T02:56:12.227Z,13.80
2023-04-23T02:58:39.663Z,15.00
2023-04-23T03:01:07.270Z,13.10
2023-04-23T03:03:35.133Z,13.50
2023-04-23T03:06:04.539Z,13.77
2023-04-23T03:08:31.931Z,13.70
2023-04-23T03:10:59.476Z,13.60
2023-04-23T03:13:27.647Z,13.00
2023-04-23T03:15:55.998Z,12.23
2023-04-23T03:18:23.421Z,10.90
2023-04-23T03:20:50.908Z,10.53
2023-04-23T03:23:19.610Z,10.70
2023-04-23T03:25:47.083Z,10.87
2023-04-23T03:28:14.649Z,10.17
2023-04-23T03:30:42.128Z,11.27
2023-04-23T03:33:09.967Z,10.87
2023-04-23T03:35:37.448Z,9.70
2023-04-23T03:38:04.904Z,9.17
2023-04-23T03:40:33.873Z,10.80
2023-04-23T03:43:01.284Z,10.70
2023-04-23T03:45:28.690Z,10.33
2023-04-23T03:47:56.192Z,10.17
2023-04-23T03:50:23.688Z,10.13
2023-04-23T03:52:53.498Z,9.73
2023-04-23T03:55:21.142Z,10.43
2023-04-23T03:57:50.274Z,10.23
2023-04-23T04:00:18.202Z,10.33
2023-04-23T04:02:45.894Z,10.80
2023-04-23T04:05:13.815Z,10.63
2023-04-23T04:07:41.406Z,10.40
2023-04-23T04:10:09.307Z,10.40
2023-04-23T04:12:37.029Z,11.00
2023-04-23T04:15:06.935Z,10.40
2023-04-23T04:17:34.417Z,10.10
2023-04-23T04:20:01.892Z,9.10
2023-04-23T04:22:30.702Z,12.20
2023-04-23T04:24:58.364Z,12.37
2023-04-23T04:27:25.799Z,13.07
2023-04-23T04:29:53.216Z,9.83
2023-04-23T04:32:23.466Z,9.93
2023-04-23T04:34:51.084Z,9.37
2023-04-23T04:37:18.700Z,10.47
2023-04-23T04:39:46.132Z,9.63
2023-04-23T04:42:13.712Z,8.53
2023-04-23T04:44:41.802Z,10.13
2023-04-23T04:47:09.411Z,8.97
2023-04-23T04:49:38.382Z,8.73
2023-04-23T04:52:06.413Z,8.33
2023-04-23T04:54:33.834Z,8.90
2023-04-23T04:57:02.306Z,8.53
2023-04-23T04:59:29.832Z,9.27
2023-04-23T05:01:57.628Z,8.90
2023-04-23T05:04:25.308Z,8.63
2023-04-23T05:06:54.085Z,8.40
2023-04-23T05:09:21.523Z,9.63
2023-04-23T05:11:49.563Z,9.07
2023-04-23T05:14:16.942Z,9.43
2023-04-23T05:16:44.477Z,9.30
2023-04-23T05:19:11.920Z,8.17
2023-04-23T05:21:39.359Z,9.67
2023-04-23T05:24:08.232Z,8.63
2023-04-23T05:26:35.634Z,8.40
2023-04-23T05:29:04.056Z,10.57
2023-04-23T05:31:31.626Z,8.53
2023-04-23T05:33:59.169Z,8.97
2023-04-23T05:36:27.401Z,8.53
2023-04-23T05:38:54.869Z,7.17
2023-04-23T05:41:23.811Z,7.83
2023-04-23T05:43:51.290Z,6.73
2023-04-23T05:46:19.823Z,7.33
2023-04-23T05:48:47.251Z,7.40
2023-04-23T05:51:14.664Z,6.77
2023-04-23T05:53:42.115Z,7.63
2023-04-23T05:56:09.505Z,7.30
2023-04-23T05:58:38.917Z,7.03
2023-04-23T06:01:06.579Z,7.50
2023-04-23T06:03:34.320Z,8.17
2023-04-23T06:06:02.205Z,7.27
2023-04-23T06:08:29.660Z,8.67
2023-04-23T06:10:57.111Z,7.00
2023-04-23T06:13:24.583Z,6.87
2023-04-23T06:15:53.377Z,8.10
2023-04-23T06:18:20.793Z,8.00
2023-04-23T06:20:48.844Z,7.47
2023-04-23T06:23:16.395Z,7.50
2023-04-23T06:25:44.033Z,7.10
2023-04-23T06:28:11.415Z,8.43
2023-04-23T06:30:38.834Z,7.57
2023-04-23T06:33:07.583Z,7.10
2023-04-23T06:35:35.034Z,7.37
2023-04-23T06:38:02.443Z,7.83
2023-04-23T06:40:29.883Z,7.30
2023-04-23T06:42:57.296Z,7.50
2023-04-23T06:45:24.927Z,6.40
2023-04-23T06:47:52.383Z,6.90
2023-04-23T06:50:21.250Z,6.77
2023-04-23T06:52:48.670Z,6.50
2023-04-23T06:55:16.156Z,6.30
2023-04-23T06:57:43.564Z,6.80
2023-04-23T07:00:12.492Z,6.70
2023-04-23T07:02:40.101Z,5.90
2023-04-23T07:05:08.005Z,6.20
2023-04-23T07:07:37.978Z,6.30
2023-04-23T07:10:07.053Z,5.77
2023-04-23T07:12:34.500Z,6.77
2023-04-23T07:15:01.948Z,6.20
2023-04-23T07:17:29.510Z,7.03
2023-04-23T07:19:56.949Z,6.70
2023-04-23T07:22:25.517Z,5.57
2023-04-23T07:24:54.318Z,7.30
2023-04-23T07:27:21.732Z,6.67
2023-04-23T07:29:49.214Z,7.63
2023-04-23T07:32:16.718Z,6.47
2023-04-23T07:34:44.428Z,7.73
2023-04-23T07:37:11.964Z,7.67
2023-04-23T07:39:40.598Z,7.70
2023-04-23T07:42:11.276Z,7.70
2023-04-23T07:44:38.682Z,7.43
2023-04-23T07:47:06.154Z,9.00
2023-04-23T07:49:33.543Z,8.23
2023-04-23T07:52:00.966Z,8.63
2023-04-23T07:54:28.448Z,8.57
2023-04-23T07:56:57.017Z,8.33
2023-04-23T07:59:25.773Z,8.50
2023-04-23T08:01:53.428Z,16.93
2023-04-23T08:04:21.125Z,9.13
2023-04-23T08:06:48.734Z,21.37
2023-04-23T08:09:16.158Z,9.13
2023-04-23T08:11:43.524Z,15.73
2023-04-23T08:14:11.166Z,8.77
2023-04-23T08:16:39.923Z,10.53
2023-04-23T08:19:07.348Z,10.57
2023-04-23T08:21:34.929Z,7.23
2023-04-23T08:24:03.285Z,8.03
2023-04-23T08:26:31.072Z,15.27
2023-04-23T08:29:01.469Z,12.25
2023-04-23T08:31:29.088Z,9.00
2023-04-23T08:33:58.209Z,9.80
2023-04-23T08:36:26.150Z,16.03
2023-04-23T08:38:53.589Z,14.73
2023-04-23T08:41:24.426Z,15.47
2023-04-23T08:43:56.730Z,12.13
2023-04-23T08:46:25.907Z,10.40
2023-04-23T08:48:54.321Z,13.37
2023-04-23T08:51:26.910Z,12.37
2023-04-23T08:53:59.148Z,12.10
2023-04-23T08:56:28.175Z,9.97
2023-04-23T08:58:57.087Z,9.83
2023-04-23T09:01:24.909Z,9.00
2023-04-23T09:03:54.454Z,10.40
2023-04-23T09:06:23.236Z,10.10
2023-04-23T09:08:50.734Z,8.90
2023-04-23T09:11:18.510Z,9.47
2023-04-23T09:13:46.285Z,8.00
2023-04-23T09:16:14.058Z,7.43
2023-04-23T09:18:41.568Z,7.33
2023-04-23T09:21:09.080Z,7.40
2023-04-23T09:23:41.277Z,6.97
2023-04-23T09:26:09.174Z,7.13
2023-04-23T09:28:37.096Z,7.03
2023-04-23T09:31:06.483Z,7.93
2023-04-23T09:33:36.663Z,3.20
2023-04-23T09:36:07.032Z,3.20
2023-04-23T09:38:35.128Z,2.70
2023-04-23T09:41:21.438Z,3.17
2023-04-23T09:43:48.932Z,2.70
2023-04-23T09:46:16.457Z,3.20
2023-04-23T09:48:44.319Z,3.30
2023-04-23T09:51:14.695Z,3.30
2023-04-23T09:53:43.372Z,3.77
2023-04-23T09:56:10.904Z,3.40
2023-04-23T09:58:39.929Z,4.33
2023-04-23T10:01:08.866Z,4.70
2023-04-23T10:03:37.462Z,4.47
2023-04-23T10:06:11.198Z,4.13
2023-04-23T10:08:44.817Z,4.07
2023-04-23T10:11:20.359Z,3.90
2023-04-23T10:13:50.287Z,3.40
2023-04-23T10:16:24.085Z,4.30
2023-04-23T10:18:55.157Z,4.30
2023-04-23T10:21:26.729Z,4.93
2023-04-23T10:23:54.547Z,5.47
2023-04-23T10:26:24.153Z,6.13
2023-04-23T10:28:55.767Z,6.90
2023-04-23T10:31:24.429Z,6.77
2023-04-23T10:33:58.693Z,6.50
2023-04-23T10:36:28.173Z,8.63
2023-04-23T10:38:59.242Z,9.63
2023-04-23T10:41:34.183Z,9.73
2023-04-23T10:44:03.786Z,10.67
2023-04-23T10:46:31.906Z,10.50
2023-04-23T10:49:14.736Z,10.07
2023-04-23T10:52:06.342Z,9.47
2023-04-23T10:54:32.387Z,18.90
2023-04-23T10:57:03.048Z,12.10
2023-04-23T10:59:33.015Z,23.17
2023-04-23T11:02:08.187Z,11.70
2023-04-23T11:04:37.919Z,14.80
2023-04-23T11:07:07.170Z,12.10
2023-04-23T11:09:40.134Z,11.73
2023-04-23T11:12:09.841Z,12.87
2023-04-23T11:14:44.115Z,12.67
2023-04-23T11:17:13.541Z,11.47
2023-04-23T11:19:42.609Z,12.30
2023-04-23T11:22:15.116Z,11.77
2023-04-23T11:24:44.616Z,13.47
2023-04-23T11:27:13.599Z,11.77
2023-04-23T11:29:44.169Z,11.83
2023-04-23T11:32:14.219Z,12.20
2023-04-23T11:34:43.928Z,11.13
2023-04-23T11:37:12.260Z,11.33
2023-04-23T11:39:40.801Z,11.63
2023-04-23T11:42:11.162Z,11.00
2023-04-23T11:44:39.568Z,9.83
2023-04-23T11:47:11.346Z,10.37
2023-04-23T11:49:39.604Z,8.93
2023-04-23T11:52:07.422Z,8.73
2023-04-23T11:54:34.995Z,9.03
2023-04-23T11:57:04.413Z,10.63
2023-04-23T11:59:31.916Z,8.70
2023-04-23T12:02:00.814Z,9.37
2023-04-23T12:04:31.292Z,8.97
2023-04-23T12:06:59.945Z,11.80
2023-04-23T12:09:29.201Z,11.97
2023-04-23T12:11:58.145Z,10.47
2023-04-23T12:14:30.401Z,8.50
2023-04-23T12:16:59.496Z,8.13
2023-04-23T12:19:30.793Z,8.87
2023-04-23T12:22:00.869Z,8.60
2023-04-23T12:24:29.752Z,7.70
2023-04-23T12:27:00.879Z,7.87
2023-04-23T12:29:31.510Z,7.30
2023-04-23T12:32:01.250Z,6.70
2023-04-23T12:34:29.958Z,6.70
2023-04-23T12:36:57.561Z,6.80
2023-04-23T12:39:30.347Z,5.50
2023-04-23T12:42:00.626Z,5.45
2023-04-23T12:44:28.210Z,5.77
2023-04-23T12:46:57.899Z,5.73
2023-04-23T12:49:26.958Z,5.47
2023-04-23T12:51:57.467Z,5.97
2023-04-23T12:54:26.539Z,4.77
2023-04-23T12:56:54.141Z,4.30
2023-04-23T12:59:21.536Z,4.25
2023-04-23T13:01:49.411Z,3.33
2023-04-23T13:04:16.854Z,2.97
2023-04-23T13:06:44.465Z,2.80
2023-04-23T13:09:13.445Z,2.35
2023-04-23T13:11:42.018Z,2.65
2023-04-23T13:14:10.410Z,2.33
2023-04-23T13:16:37.933Z,3.03
2023-04-23T13:19:05.561Z,3.13
2023-04-23T13:21:32.969Z,8.13
2023-04-23T13:24:00.364Z,4.93
2023-04-23T13:26:31.907Z,2.78
2023-04-23T13:28:59.705Z,2.67
2023-04-23T13:31:27.581Z,2.70
2023-04-23T13:33:55.616Z,2.42
2023-04-23T13:36:23.440Z,2.70
2023-04-23T13:38:51.385Z,2.70
2023-04-23T13:41:19.026Z,2.60
2023-04-23T13:43:47.922Z,3.17
2023-04-23T13:46:15.500Z,2.67
2023-04-23T13:48:43.046Z,2.40
2023-04-23T13:51:21.842Z,4.17
2023-04-23T13:53:54.181Z,2.58
2023-04-23T13:56:21.835Z,2.28
2023-04-23T13:58:52.987Z,2.70
2023-04-23T14:01:20.715Z,2.38
2023-04-23T14:03:48.267Z,2.60
2023-04-23T14:06:15.802Z,2.10
2023-04-23T14:08:43.333Z,2.28
2023-04-23T14:11:10.929Z,2.30
2023-04-23T14:13:38.860Z,2.45
2023-04-23T14:16:08.076Z,2.20
2023-04-23T14:18:35.892Z,2.10
2023-04-23T14:21:03.311Z,2.13
2023-04-23T14:23:50.298Z,1.87
2023-04-23T14:26:40.802Z,1.70
2023-04-23T14:29:20.439Z,1.80
2023-04-23T14:31:49.324Z,1.40
2023-04-23T14:34:16.736Z,1.90
2023-04-23T14:36:44.628Z,1.90
2023-04-23T14:39:12.484Z,1.43
2023-04-23T14:41:40.818Z,1.50
2023-04-23T14:44:08.269Z,1.70
2023-04-23T14:46:35.768Z,1.90
2023-04-23T14:49:04.608Z,1.70
2023-04-23T14:51:32.037Z,1.07
2023-04-23T14:53:59.478Z,2.00
2023-04-23T14:56:27.459Z,1.90
2023-04-23T14:58:54.882Z,1.50
2023-04-23T15:01:22.391Z,1.33
2023-04-23T15:03:49.971Z,1.40
2023-04-23T15:06:18.928Z,1.50
2023-04-23T15:08:46.435Z,1.33
2023-04-23T15:11:14.062Z,1.13
2023-04-23T15:13:49.748Z,1.40
2023-04-23T15:16:40.573Z,1.10
2023-04-23T15:19:13.416Z,1.20
2023-04-23T15:21:43.022Z,1.30
2023-04-23T15:24:10.616Z,1.40
2023-04-23T15:26:38.976Z,1.30
2023-04-23T15:29:08.696Z,1.52
2023-04-23T15:31:36.671Z,1.30
2023-04-23T15:34:06.130Z,1.15
2023-04-23T15:36:35.389Z,1.20
2023-04-23T15:39:04.554Z,1.43
2023-04-23T15:41:32.023Z,1.40
2023-04-23T15:44:00.302Z,1.20
2023-04-23T15:46:27.839Z,6.07
2023-04-23T15:48:55.240Z,4.30
2023-04-23T15:51:22.754Z,1.03
2023-04-23T15:53:51.467Z,1.60
2023-04-23T15:56:20.691Z,2.20
2023-04-23T15:58:48.078Z,2.77
2023-04-23T16:01:17.198Z,2.50
2023-04-23T16:03:57.685Z,1.27
2023-04-23T16:06:32.563Z,2.40
2023-04-23T16:09:01.260Z,2.30
2023-04-23T16:11:30.033Z,1.97
2023-04-23T16:13:57.665Z,1.73
2023-04-23T16:16:25.271Z,4.37
2023-04-23T16:18:53.306Z,2.10
2023-04-23T16:21:20.884Z,3.10
2023-04-23T16:23:48.384Z,1.50
2023-04-23T16:26:15.812Z,1.20
2023-04-23T16:28:45.781Z,1.20
2023-04-23T16:31:13.398Z,1.30
2023-04-23T16:33:41.341Z,1.30
2023-04-23T16:36:12.849Z,1.23
2023-04-23T16:38:40.378Z,1.40
2023-04-23T16:41:07.873Z,1.60
2023-04-23T16:43:35.323Z,1.00
2023-04-23T16:46:04.157Z,1.30
2023-04-23T16:48:31.723Z,1.33
2023-04-23T16:50:59.166Z,1.90
2023-04-23T16:53:26.673Z,1.87
2023-04-23T16:55:54.554Z,1.70
2023-04-23T16:58:22.724Z,2.10
2023-04-23T17:00:50.130Z,1.80
2023-04-23T17:03:18.914Z,1.30
2023-04-23T17:05:49.642Z,1.97
2023-04-23T17:08:17.836Z,1.67
2023-04-23T17:10:45.469Z,1.50
2023-04-23T17:13:12.932Z,6.23
2023-04-23T17:15:40.339Z,2.77
2023-04-23T17:18:08.619Z,1.53
2023-04-23T17:20:38.816Z,1.80
2023-04-23T17:23:06.265Z,1.77
2023-04-23T17:25:33.685Z,2.00
2023-04-23T17:28:01.124Z,2.80
2023-04-23T17:30:28.563Z,2.23
2023-04-23T17:32:56.328Z,2.70
2023-04-23T17:35:23.779Z,3.30
2023-04-23T17:37:52.566Z,3.00
2023-04-23T17:40:20.275Z,2.63
2023-04-23T17:42:48.022Z,5.07
2023-04-23T17:45:15.474Z,2.77
2023-04-23T17:47:42.888Z,7.20
2023-04-23T17:50:11.919Z,4.73
2023-04-23T17:52:40.234Z,2.97
2023-04-23T17:55:09.698Z,5.03
2023-04-23T17:57:37.324Z,2.57
2023-04-23T18:00:09.579Z,3.97
2023-04-23T18:02:40.166Z,4.00
2023-04-23T18:05:09.509Z,3.00
2023-04-23T18:07:37.101Z,2.60
2023-04-23T18:10:06.260Z,2.00
2023-04-23T18:12:35.040Z,2.60
2023-04-23T18:15:02.762Z,3.27
2023-04-23T18:17:30.467Z,3.37
2023-04-23T18:19:58.860Z,4.13
2023-04-23T18:22:26.308Z,9.93
2023-04-23T18:24:53.768Z,6.87
2023-04-23T18:27:21.203Z,6.30
2023-04-23T18:29:50.004Z,5.37
2023-04-23T18:32:27.613Z,3.57
2023-04-23T18:35:02.417Z,4.53
2023-04-23T18:37:37.214Z,4.40
2023-04-23T18:40:05.566Z,4.10
2023-04-23T18:42:33.065Z,3.47
2023-04-23T18:45:03.951Z,4.40
2023-04-23T18:47:33.369Z,11.33
2023-04-23T18:50:02.849Z,20.27
2023-04-23T18:52:30.364Z,6.87
2023-04-23T18:54:57.782Z,5.20
2023-04-23T18:57:25.225Z,6.63
2023-04-23T18:59:52.629Z,6.07
2023-04-23T19:02:34.455Z,4.27
2023-04-23T19:05:02.469Z,4.90
2023-04-23T19:07:29.909Z,6.23
2023-04-23T19:09:57.304Z,15.30
2023-04-23T19:12:24.718Z,38.07
2023-04-23T19:14:52.120Z,14.80
2023-04-23T19:17:21.053Z,28.57
2023-04-23T19:19:48.518Z,13.87
2023-04-23T19:22:15.996Z,12.77
2023-04-23T19:24:43.401Z,16.27
2023-04-23T19:27:10.843Z,9.33
2023-04-23T19:29:38.236Z,9.33
2023-04-23T19:32:06.626Z,7.93
2023-04-23T19:34:35.378Z,8.00
2023-04-23T19:37:03.794Z,5.77
2023-04-23T19:39:31.174Z,7.10
2023-04-23T19:41:58.616Z,6.50
2023-04-23T19:44:26.041Z,6.60
2023-04-23T19:46:53.507Z,7.63
2023-04-23T19:49:20.940Z,10.37
2023-04-23T19:51:50.598Z,11.17
2023-04-23T19:54:18.040Z,7.10
2023-04-23T19:56:45.493Z,22.47
2023-04-23T19:59:14.224Z,28.40
2023-04-23T20:01:41.778Z,21.73
2023-04-23T20:04:09.425Z,14.23
2023-04-23T20:06:36.986Z,10.90
2023-04-23T20:09:07.487Z,8.87
2023-04-23T20:11:35.960Z,11.23
2023-04-23T20:14:03.710Z,12.53
2023-04-23T20:16:31.242Z,9.80
2023-04-23T20:18:58.768Z,12.73
2023-04-23T20:21:26.772Z,8.83
2023-04-23T20:23:54.196Z,11.07
2023-04-23T20:26:22.914Z,7.10
2023-04-23T20:28:50.346Z,8.20
2023-04-23T20:31:18.902Z,7.20
2023-04-23T20:33:48.154Z,6.50
2023-04-23T20:36:15.949Z,6.20
2023-04-23T20:38:43.362Z,5.90
2023-04-23T20:41:11.022Z,5.93
2023-04-23T20:43:39.795Z,12.83
2023-04-23T20:46:10.147Z,7.10
2023-04-23T20:48:37.713Z,7.07
2023-04-23T20:51:05.346Z,5.90
2023-04-23T20:53:32.991Z,5.90
2023-04-23T20:56:00.489Z,6.30
2023-04-23T20:58:29.010Z,5.93
2023-04-23T21:00:57.920Z,6.07
2023-04-23T21:03:25.434Z,6.00
2023-04-23T21:05:53.019Z,6.73
2023-04-23T21:08:20.436Z,20.17
2023-04-23T21:10:47.857Z,9.73
2023-04-23T21:13:15.294Z,12.03
2023-04-23T21:15:43.085Z,6.87
2023-04-23T21:18:11.826Z,6.40
2023-04-23T21:20:39.277Z,6.57
2023-04-23T21:23:06.684Z,5.43
2023-04-23T21:25:35.211Z,5.60
2023-04-23T21:28:03.003Z,6.40
2023-04-23T21:30:37.575Z,5.83
2023-04-23T21:33:05.342Z,5.40
2023-04-23T21:35:34.203Z,4.90
2023-04-23T21:38:01.925Z,5.40
2023-04-23T21:40:29.478Z,5.50
2023-04-23T21:42:57.033Z,5.00
2023-04-23T21:45:24.742Z,6.70
2023-04-23T21:47:52.271Z,5.53
2023-04-23T21:50:19.918Z,5.13
2023-04-23T21:52:49.539Z,5.07
2023-04-23T21:55:17.022Z,5.37
2023-04-23T21:57:44.677Z,8.97
2023-04-23T22:00:14.144Z,8.27
2023-04-23T22:02:42.053Z,5.93
2023-04-23T22:05:10.449Z,7.13
2023-04-23T22:07:41.267Z,6.27
2023-04-23T22:10:12.410Z,12.90
2023-04-23T22:12:41.367Z,8.50
2023-04-23T22:15:11.108Z,10.60
2023-04-23T22:17:39.070Z,9.80
2023-04-23T22:20:07.940Z,12.13
2023-04-23T22:22:36.061Z,9.07
2023-04-23T22:25:06.238Z,15.30
2023-04-23T22:27:35.727Z,11.17
2023-04-23T22:30:03.938Z,10.53
2023-04-23T22:32:31.701Z,3.87
2023-04-23T22:34:59.814Z,7.43
2023-04-23T22:37:27.475Z,7.40
2023-04-23T22:39:54.986Z,8.30
2023-04-23T22:42:22.411Z,9.60
2023-04-23T22:44:51.205Z,8.17
2023-04-23T22:47:18.789Z,7.27
2023-04-23T22:49:46.652Z,6.63
2023-04-23T22:52:15.820Z,6.37
2023-04-23T22:54:43.529Z,5.47
2023-04-23T22:57:11.478Z,4.53
2023-04-23T22:59:39.374Z,5.50
2023-04-23T23:02:08.910Z,7.10
2023-04-23T23:04:38.486Z,7.00
2023-04-23T23:07:06.099Z,6.30
2023-04-23T23:09:33.702Z,5.00
2023-04-23T23:12:02.331Z,5.40
2023-04-23T23:14:30.447Z,8.00
2023-04-23T23:16:58.278Z,4.93
2023-04-23T23:19:27.949Z,7.03
2023-04-23T23:21:55.675Z,5.23
2023-04-23T23:24:23.185Z,5.10
2023-04-23T23:26:50.707Z,4.60
2023-04-23T23:29:18.165Z,5.60
2023-04-23T23:31:45.610Z,4.60
2023-04-23T23:34:13.292Z,5.53
2023-04-23T23:36:42.321Z,4.07
2023-04-23T23:39:10.199Z,6.00
2023-04-23T23:41:37.598Z,14.43
2023-04-23T23:44:05.012Z,5.80
2023-04-23T23:46:32.429Z,4.90
2023-04-23T23:48:59.974Z,7.37
2023-04-23T23:51:28.215Z,4.40
2023-04-23T23:53:56.958Z,4.00
2023-04-23T23:56:24.451Z,4.43
2023-04-23T23:58:51.814Z,5.43
